sensor_id;sensor_type;location;lat;lon;timestamp;pressure;altitude;pressure_sealevel;temperature;humidity
27729;BME280;15126;42.186;24.340;2022-11-20T00:01:26;98727.09;;;11.93;98.37
27729;BME280;15126;42.186;24.340;2022-11-20T00:03:55;98714.09;;;12.00;97.69
27729;BME280;15126;42.186;24.340;2022-11-20T00:06:23;98739.72;;;11.76;98.94
27729;BME280;15126;42.186;24.340;2022-11-20T00:08:50;98717.00;;;11.74;99.84
27729;BME280;15126;42.186;24.340;2022-11-20T00:11:20;98722.09;;;11.88;98.77
27729;BME280;15126;42.186;24.340;2022-11-20T00:13:48;98728.66;;;11.94;98.00
27729;BME280;15126;42.186;24.340;2022-11-20T00:16:19;98736.59;;;11.96;97.85
27729;BME280;15126;42.186;24.340;2022-11-20T00:18:46;98752.91;;;11.98;97.60
27729;BME280;15126;42.186;24.340;2022-11-20T00:21:14;98763.00;;;11.95;97.94
27729;BME280;15126;42.186;24.340;2022-11-20T00:23:42;98738.16;;;11.97;97.90
27729;BME280;15126;42.186;24.340;2022-11-20T00:26:10;98709.53;;;11.93;97.77
27729;BME280;15126;42.186;24.340;2022-11-20T00:28:38;98732.69;;;11.93;97.49
27729;BME280;15126;42.186;24.340;2022-11-20T00:31:06;98725.28;;;11.78;98.77
27729;BME280;15126;42.186;24.340;2022-11-20T00:33:34;98709.03;;;11.85;99.12
27729;BME280;15126;42.186;24.340;2022-11-20T00:36:02;98720.88;;;11.89;98.54
27729;BME280;15126;42.186;24.340;2022-11-20T00:38:30;98716.63;;;11.85;99.00
27729;BME280;15126;42.186;24.340;2022-11-20T00:40:57;98720.72;;;11.93;98.05
27729;BME280;15126;42.186;24.340;2022-11-20T00:43:24;98731.72;;;11.87;98.45
27729;BME280;15126;42.186;24.340;2022-11-20T00:45:56;98732.03;;;11.55;100.00
27729;BME280;15126;42.186;24.340;2022-11-20T00:48:24;98720.28;;;11.60;100.00
27729;BME280;15126;42.186;24.340;2022-11-20T00:50:52;98723.41;;;11.62;100.00
27729;BME280;15126;42.186;24.340;2022-11-20T00:53:19;98743.06;;;11.71;100.00
27729;BME280;15126;42.186;24.340;2022-11-20T00:55:53;98698.59;;;11.64;100.00
27729;BME280;15126;42.186;24.340;2022-11-20T00:58:20;98707.28;;;11.79;99.39
27729;BME280;15126;42.186;24.340;2022-11-20T01:00:47;98717.56;;;11.82;98.77
27729;BME280;15126;42.186;24.340;2022-11-20T01:03:15;98728.41;;;11.67;100.00
27729;BME280;15126;42.186;24.340;2022-11-20T01:05:42;98708.31;;;11.72;100.00
27729;BME280;15126;42.186;24.340;2022-11-20T01:08:11;98704.50;;;11.79;99.28
27729;BME280;15126;42.186;24.340;2022-11-20T01:10:37;98707.22;;;11.70;99.42
27729;BME280;15126;42.186;24.340;2022-11-20T01:13:04;98685.47;;;11.52;100.00
27729;BME280;15126;42.186;24.340;2022-11-20T01:15:51;98654.69;;;11.65;100.00
27729;BME280;15126;42.186;24.340;2022-11-20T01:18:18;98657.03;;;11.66;100.00
27729;BME280;15126;42.186;24.340;2022-11-20T01:20:44;98672.72;;;11.51;100.00
27729;BME280;15126;42.186;24.340;2022-11-20T01:23:13;98659.28;;;11.59;100.00
27729;BME280;15126;42.186;24.340;2022-11-20T01:25:39;98662.59;;;11.66;100.00
27729;BME280;15126;42.186;24.340;2022-11-20T01:28:06;98678.13;;;11.67;100.00
27729;BME280;15126;42.186;24.340;2022-11-20T01:30:33;98667.31;;;11.69;100.00
27729;BME280;15126;42.186;24.340;2022-11-20T01:33:00;98662.72;;;11.75;100.00
27729;BME280;15126;42.186;24.340;2022-11-20T01:35:27;98674.00;;;11.72;100.00
27729;BME280;15126;42.186;24.340;2022-11-20T01:37:53;98659.25;;;11.71;100.00
27729;BME280;15126;42.186;24.340;2022-11-20T01:40:22;98656.81;;;11.73;100.00
27729;BME280;15126;42.186;24.340;2022-11-20T01:42:55;98647.31;;;11.71;100.00
27729;BME280;15126;42.186;24.340;2022-11-20T01:46:14;98636.88;;;11.50;100.00
27729;BME280;15126;42.186;24.340;2022-11-20T01:48:49;98635.59;;;11.63;100.00
27729;BME280;15126;42.186;24.340;2022-11-20T01:51:22;98637.81;;;11.68;100.00
27729;BME280;15126;42.186;24.340;2022-11-20T01:53:51;98637.28;;;11.61;100.00
27729;BME280;15126;42.186;24.340;2022-11-20T01:56:22;98641.50;;;11.65;100.00
27729;BME280;15126;42.186;24.340;2022-11-20T01:58:52;98629.00;;;11.70;100.00
27729;BME280;15126;42.186;24.340;2022-11-20T02:01:20;98632.78;;;11.76;100.00
27729;BME280;15126;42.186;24.340;2022-11-20T02:03:48;98648.88;;;11.72;99.94
27729;BME280;15126;42.186;24.340;2022-11-20T02:06:20;98643.28;;;11.72;99.85
27729;BME280;15126;42.186;24.340;2022-11-20T02:08:49;98637.09;;;11.77;99.38
27729;BME280;15126;42.186;24.340;2022-11-20T02:11:17;98628.28;;;11.78;99.15
27729;BME280;15126;42.186;24.340;2022-11-20T02:13:46;98647.72;;;11.82;99.53
27729;BME280;15126;42.186;24.340;2022-11-20T02:16:16;98646.91;;;11.60;100.00
27729;BME280;15126;42.186;24.340;2022-11-20T02:18:45;98634.34;;;11.64;100.00
27729;BME280;15126;42.186;24.340;2022-11-20T02:21:19;98639.63;;;11.62;100.00
27729;BME280;15126;42.186;24.340;2022-11-20T02:24:04;98635.69;;;11.72;100.00
27729;BME280;15126;42.186;24.340;2022-11-20T02:26:33;98620.50;;;11.73;100.00
27729;BME280;15126;42.186;24.340;2022-11-20T02:29:02;98641.47;;;11.78;100.00
27729;BME280;15126;42.186;24.340;2022-11-20T02:31:37;98603.00;;;11.60;100.00
27729;BME280;15126;42.186;24.340;2022-11-20T02:34:05;98613.66;;;11.74;100.00
27729;BME280;15126;42.186;24.340;2022-11-20T02:36:33;98626.72;;;11.77;100.00
27729;BME280;15126;42.186;24.340;2022-11-20T02:39:03;98626.28;;;11.79;100.00
27729;BME280;15126;42.186;24.340;2022-11-20T02:41:32;98623.03;;;11.80;100.00
27729;BME280;15126;42.186;24.340;2022-11-20T02:43:59;98621.41;;;11.70;100.00
27729;BME280;15126;42.186;24.340;2022-11-20T02:46:26;98632.97;;;11.81;100.00
27729;BME280;15126;42.186;24.340;2022-11-20T02:48:53;98639.34;;;11.82;100.00
27729;BME280;15126;42.186;24.340;2022-11-20T02:51:20;98637.31;;;11.82;99.86
27729;BME280;15126;42.186;24.340;2022-11-20T02:53:47;98620.72;;;11.66;100.00
27729;BME280;15126;42.186;24.340;2022-11-20T02:56:15;98620.50;;;11.73;100.00
27729;BME280;15126;42.186;24.340;2022-11-20T02:58:42;98628.88;;;11.73;100.00
27729;BME280;15126;42.186;24.340;2022-11-20T03:01:09;98628.66;;;11.68;100.00
27729;BME280;15126;42.186;24.340;2022-11-20T03:03:36;98611.47;;;11.69;100.00
27729;BME280;15126;42.186;24.340;2022-11-20T03:06:03;98602.72;;;11.67;100.00
27729;BME280;15126;42.186;24.340;2022-11-20T03:08:30;98584.75;;;11.68;100.00
27729;BME280;15126;42.186;24.340;2022-11-20T03:11:02;98589.00;;;11.73;99.93
27729;BME280;15126;42.186;24.340;2022-11-20T03:13:30;98584.63;;;11.72;99.79
27729;BME280;15126;42.186;24.340;2022-11-20T03:15:57;98576.25;;;11.72;99.71
27729;BME280;15126;42.186;24.340;2022-11-20T03:18:27;98589.91;;;11.70;99.64
27729;BME280;15126;42.186;24.340;2022-11-20T03:20:57;98594.69;;;11.69;99.79
27729;BME280;15126;42.186;24.340;2022-11-20T03:23:24;98593.13;;;11.68;99.76
27729;BME280;15126;42.186;24.340;2022-11-20T03:25:51;98600.72;;;11.68;99.60
27729;BME280;15126;42.186;24.340;2022-11-20T03:28:18;98598.06;;;11.64;99.65
27729;BME280;15126;42.186;24.340;2022-11-20T03:30:46;98588.44;;;11.65;99.67
27729;BME280;15126;42.186;24.340;2022-11-20T03:33:13;98592.03;;;11.66;99.62
27729;BME280;15126;42.186;24.340;2022-11-20T03:35:39;98591.25;;;11.65;100.00
27729;BME280;15126;42.186;24.340;2022-11-20T03:38:06;98605.22;;;11.65;99.91
27729;BME280;15126;42.186;24.340;2022-11-20T03:40:33;98602.22;;;11.60;100.00
27729;BME280;15126;42.186;24.340;2022-11-20T03:43:01;98577.72;;;11.64;100.00
27729;BME280;15126;42.186;24.340;2022-11-20T03:45:28;98578.50;;;11.64;100.00
27729;BME280;15126;42.186;24.340;2022-11-20T03:47:56;98590.22;;;11.72;100.00
27729;BME280;15126;42.186;24.340;2022-11-20T03:50:23;98575.59;;;11.89;100.00
27729;BME280;15126;42.186;24.340;2022-11-20T03:52:49;98597.78;;;12.15;100.00
27729;BME280;15126;42.186;24.340;2022-11-20T03:55:16;98620.16;;;12.24;99.39
27729;BME280;15126;42.186;24.340;2022-11-20T03:57:43;98631.66;;;12.26;98.35
27729;BME280;15126;42.186;24.340;2022-11-20T04:00:11;98623.50;;;12.10;99.40
27729;BME280;15126;42.186;24.340;2022-11-20T04:02:38;98634.84;;;12.15;99.17
27729;BME280;15126;42.186;24.340;2022-11-20T04:05:07;98642.34;;;12.18;98.62
27729;BME280;15126;42.186;24.340;2022-11-20T04:07:34;98636.16;;;12.23;98.61
27729;BME280;15126;42.186;24.340;2022-11-20T04:10:02;98629.81;;;12.23;98.19
27729;BME280;15126;42.186;24.340;2022-11-20T04:12:32;98631.53;;;12.29;97.53
27729;BME280;15126;42.186;24.340;2022-11-20T04:14:59;98633.69;;;12.25;97.92
27729;BME280;15126;42.186;24.340;2022-11-20T04:17:26;98633.81;;;12.22;97.78
27729;BME280;15126;42.186;24.340;2022-11-20T04:19:53;98615.66;;;12.26;97.47
27729;BME280;15126;42.186;24.340;2022-11-20T04:22:21;98615.34;;;12.24;97.41
27729;BME280;15126;42.186;24.340;2022-11-20T04:24:48;98632.59;;;12.23;97.22
27729;BME280;15126;42.186;24.340;2022-11-20T04:27:15;98623.06;;;12.20;97.35
27729;BME280;15126;42.186;24.340;2022-11-20T04:29:42;98618.88;;;12.16;97.54
27729;BME280;15126;42.186;24.340;2022-11-20T04:32:09;98609.53;;;12.10;97.17
27729;BME280;15126;42.186;24.340;2022-11-20T04:34:36;98608.59;;;12.13;97.27
27729;BME280;15126;42.186;24.340;2022-11-20T04:37:03;98640.00;;;12.17;97.15
27729;BME280;15126;42.186;24.340;2022-11-20T04:39:31;98627.19;;;12.07;97.96
27729;BME280;15126;42.186;24.340;2022-11-20T04:41:58;98633.13;;;12.09;97.74
27729;BME280;15126;42.186;24.340;2022-11-20T04:44:39;98623.66;;;12.06;96.97
27729;BME280;15126;42.186;24.340;2022-11-20T04:47:06;98609.03;;;12.02;97.15
27729;BME280;15126;42.186;24.340;2022-11-20T04:49:33;98611.81;;;12.02;97.05
27729;BME280;15126;42.186;24.340;2022-11-20T04:52:00;98618.78;;;11.98;97.45
27729;BME280;15126;42.186;24.340;2022-11-20T04:54:27;98621.00;;;11.81;98.91
27729;BME280;15126;42.186;24.340;2022-11-20T04:56:55;98596.66;;;11.81;99.09
27729;BME280;15126;42.186;24.340;2022-11-20T04:59:22;98606.00;;;11.87;99.02
27729;BME280;15126;42.186;24.340;2022-11-20T05:01:49;98600.22;;;11.82;98.78
27729;BME280;15126;42.186;24.340;2022-11-20T05:04:15;98618.03;;;11.75;99.18
27729;BME280;15126;42.186;24.340;2022-11-20T05:06:42;98610.63;;;11.81;99.46
27729;BME280;15126;42.186;24.340;2022-11-20T05:09:10;98613.09;;;11.79;98.98
27729;BME280;15126;42.186;24.340;2022-11-20T05:11:38;98615.22;;;11.75;99.07
27729;BME280;15126;42.186;24.340;2022-11-20T05:14:06;98629.78;;;11.70;100.00
27729;BME280;15126;42.186;24.340;2022-11-20T05:16:34;98595.06;;;11.59;99.95
27729;BME280;15126;42.186;24.340;2022-11-20T05:19:01;98618.94;;;11.72;100.00
27729;BME280;15126;42.186;24.340;2022-11-20T05:21:30;98618.50;;;11.74;100.00
27729;BME280;15126;42.186;24.340;2022-11-20T05:23:57;98624.88;;;11.62;100.00
27729;BME280;15126;42.186;24.340;2022-11-20T05:26:24;98596.81;;;11.65;100.00
27729;BME280;15126;42.186;24.340;2022-11-20T05:28:51;98545.19;;;11.05;100.00
27729;BME280;15126;42.186;24.340;2022-11-20T05:31:21;98613.19;;;11.54;100.00
27729;BME280;15126;42.186;24.340;2022-11-20T05:33:48;98603.25;;;11.53;100.00
27729;BME280;15126;42.186;24.340;2022-11-20T05:36:16;98596.63;;;11.60;100.00
27729;BME280;15126;42.186;24.340;2022-11-20T05:38:43;98608.25;;;11.58;100.00
27729;BME280;15126;42.186;24.340;2022-11-20T05:41:12;98600.72;;;11.68;100.00
27729;BME280;15126;42.186;24.340;2022-11-20T05:43:40;98595.00;;;11.71;100.00
27729;BME280;15126;42.186;24.340;2022-11-20T05:46:10;98600.03;;;11.76;100.00
27729;BME280;15126;42.186;24.340;2022-11-20T05:48:39;98595.56;;;11.79;100.00
27729;BME280;15126;42.186;24.340;2022-11-20T05:51:08;98596.28;;;11.70;100.00
27729;BME280;15126;42.186;24.340;2022-11-20T05:53:36;98599.94;;;11.67;100.00
27729;BME280;15126;42.186;24.340;2022-11-20T05:56:05;98616.13;;;11.72;100.00
27729;BME280;15126;42.186;24.340;2022-11-20T05:58:33;98600.16;;;11.73;100.00
27729;BME280;15126;42.186;24.340;2022-11-20T06:01:05;98606.25;;;11.80;100.00
27729;BME280;15126;42.186;24.340;2022-11-20T06:03:32;98612.50;;;11.84;100.00
27729;BME280;15126;42.186;24.340;2022-11-20T06:06:02;98629.97;;;11.76;100.00
27729;BME280;15126;42.186;24.340;2022-11-20T06:08:29;98627.63;;;11.74;100.00
27729;BME280;15126;42.186;24.340;2022-11-20T06:10:56;98633.69;;;11.73;100.00
27729;BME280;15126;42.186;24.340;2022-11-20T06:13:23;98634.19;;;11.80;100.00
27729;BME280;15126;42.186;24.340;2022-11-20T06:15:50;98621.97;;;11.87;100.00
27729;BME280;15126;42.186;24.340;2022-11-20T06:18:17;98655.75;;;11.80;100.00
27729;BME280;15126;42.186;24.340;2022-11-20T06:20:45;98657.31;;;11.81;100.00
27729;BME280;15126;42.186;24.340;2022-11-20T06:23:13;98665.00;;;11.89;100.00
27729;BME280;15126;42.186;24.340;2022-11-20T06:25:41;98676.81;;;11.93;100.00
27729;BME280;15126;42.186;24.340;2022-11-20T06:28:09;98676.69;;;11.97;100.00
27729;BME280;15126;42.186;24.340;2022-11-20T06:30:36;98679.66;;;12.03;100.00
27729;BME280;15126;42.186;24.340;2022-11-20T06:33:03;98675.66;;;12.04;100.00
27729;BME280;15126;42.186;24.340;2022-11-20T06:35:30;98677.19;;;12.05;100.00
27729;BME280;15126;42.186;24.340;2022-11-20T06:37:57;98677.25;;;12.14;100.00
27729;BME280;15126;42.186;24.340;2022-11-20T06:40:25;98651.44;;;12.10;100.00
27729;BME280;15126;42.186;24.340;2022-11-20T06:42:53;98671.13;;;12.28;100.00
27729;BME280;15126;42.186;24.340;2022-11-20T06:45:20;98664.47;;;12.34;100.00
27729;BME280;15126;42.186;24.340;2022-11-20T06:47:47;98660.16;;;12.42;100.00
27729;BME280;15126;42.186;24.340;2022-11-20T06:50:14;98664.72;;;12.49;100.00
27729;BME280;15126;42.186;24.340;2022-11-20T06:52:41;98666.59;;;12.61;100.00
27729;BME280;15126;42.186;24.340;2022-11-20T06:55:08;98649.88;;;12.70;100.00
27729;BME280;15126;42.186;24.340;2022-11-20T06:57:36;98651.13;;;12.78;100.00
27729;BME280;15126;42.186;24.340;2022-11-20T07:00:04;98657.69;;;12.84;100.00
27729;BME280;15126;42.186;24.340;2022-11-20T07:02:31;98658.50;;;13.03;100.00
27729;BME280;15126;42.186;24.340;2022-11-20T07:04:58;98660.59;;;13.11;100.00
27729;BME280;15126;42.186;24.340;2022-11-20T07:07:25;98662.63;;;13.29;100.00
27729;BME280;15126;42.186;24.340;2022-11-20T07:09:51;98674.16;;;13.40;100.00
27729;BME280;15126;42.186;24.340;2022-11-20T07:12:18;98665.91;;;13.46;100.00
27729;BME280;15126;42.186;24.340;2022-11-20T07:14:46;98664.66;;;13.65;100.00
27729;BME280;15126;42.186;24.340;2022-11-20T07:17:13;98667.00;;;13.76;100.00
27729;BME280;15126;42.186;24.340;2022-11-20T07:19:40;98675.56;;;13.90;100.00
27729;BME280;15126;42.186;24.340;2022-11-20T07:22:08;98666.06;;;13.97;100.00
27729;BME280;15126;42.186;24.340;2022-11-20T07:24:35;98669.75;;;14.03;100.00
27729;BME280;15126;42.186;24.340;2022-11-20T07:27:05;98658.75;;;13.99;100.00
27729;BME280;15126;42.186;24.340;2022-11-20T07:29:31;98673.00;;;14.19;100.00
27729;BME280;15126;42.186;24.340;2022-11-20T07:32:00;98669.56;;;14.24;100.00
27729;BME280;15126;42.186;24.340;2022-11-20T07:34:26;98679.56;;;14.35;100.00
27729;BME280;15126;42.186;24.340;2022-11-20T07:36:53;98682.66;;;14.46;99.22
27729;BME280;15126;42.186;24.340;2022-11-20T07:39:20;98684.81;;;14.51;99.08
27729;BME280;15126;42.186;24.340;2022-11-20T07:41:47;98667.78;;;14.54;98.64
27729;BME280;15126;42.186;24.340;2022-11-20T07:44:13;98646.78;;;14.50;98.59
27729;BME280;15126;42.186;24.340;2022-11-20T07:46:40;98677.56;;;14.68;98.49
27729;BME280;15126;42.186;24.340;2022-11-20T07:49:08;98673.03;;;14.70;98.22
27729;BME280;15126;42.186;24.340;2022-11-20T07:51:35;98667.53;;;14.76;98.36
27729;BME280;15126;42.186;24.340;2022-11-20T07:54:02;98671.41;;;14.87;98.36
27729;BME280;15126;42.186;24.340;2022-11-20T07:56:31;98669.00;;;14.95;97.98
27729;BME280;15126;42.186;24.340;2022-11-20T07:58:58;98663.34;;;15.04;97.94
27729;BME280;15126;42.186;24.340;2022-11-20T08:01:25;98664.84;;;15.14;97.59
27729;BME280;15126;42.186;24.340;2022-11-20T08:03:51;98667.50;;;15.18;97.26
27729;BME280;15126;42.186;24.340;2022-11-20T08:06:20;98667.59;;;15.23;96.92
27729;BME280;15126;42.186;24.340;2022-11-20T08:08:46;98658.06;;;15.30;96.61
27729;BME280;15126;42.186;24.340;2022-11-20T08:11:13;98656.31;;;15.32;96.76
27729;BME280;15126;42.186;24.340;2022-11-20T08:13:57;98657.16;;;15.47;96.65
27729;BME280;15126;42.186;24.340;2022-11-20T08:16:40;98673.00;;;15.60;96.34
27729;BME280;15126;42.186;24.340;2022-11-20T08:19:07;98664.38;;;15.63;95.67
27729;BME280;15126;42.186;24.340;2022-11-20T08:21:35;98667.63;;;15.71;95.23
27729;BME280;15126;42.186;24.340;2022-11-20T08:24:03;98662.47;;;15.69;95.17
27729;BME280;15126;42.186;24.340;2022-11-20T08:26:30;98658.19;;;15.74;95.49
27729;BME280;15126;42.186;24.340;2022-11-20T08:28:57;98665.09;;;15.73;94.97
27729;BME280;15126;42.186;24.340;2022-11-20T08:31:25;98660.91;;;15.68;95.39
27729;BME280;15126;42.186;24.340;2022-11-20T08:33:52;98661.91;;;15.80;95.14
27729;BME280;15126;42.186;24.340;2022-11-20T08:36:20;98670.63;;;15.82;95.03
27729;BME280;15126;42.186;24.340;2022-11-20T08:38:49;98650.56;;;15.89;95.33
27729;BME280;15126;42.186;24.340;2022-11-20T08:41:16;98637.75;;;15.88;95.54
27729;BME280;15126;42.186;24.340;2022-11-20T08:43:55;98653.78;;;15.96;94.87
27729;BME280;15126;42.186;24.340;2022-11-20T08:46:23;98660.75;;;16.01;94.89
27729;BME280;15126;42.186;24.340;2022-11-20T08:48:50;98652.03;;;15.99;95.15
27729;BME280;15126;42.186;24.340;2022-11-20T08:51:18;98643.41;;;16.02;95.13
27729;BME280;15126;42.186;24.340;2022-11-20T08:53:46;98656.97;;;16.04;95.12
27729;BME280;15126;42.186;24.340;2022-11-20T08:56:15;98655.34;;;16.12;94.97
27729;BME280;15126;42.186;24.340;2022-11-20T08:58:43;98657.47;;;16.17;95.47
27729;BME280;15126;42.186;24.340;2022-11-20T09:01:10;98653.00;;;16.25;95.81
27729;BME280;15126;42.186;24.340;2022-11-20T09:03:37;98637.69;;;16.26;95.50
27729;BME280;15126;42.186;24.340;2022-11-20T09:06:05;98641.28;;;16.27;95.75
27729;BME280;15126;42.186;24.340;2022-11-20T09:08:33;98629.44;;;16.37;95.92
27729;BME280;15126;42.186;24.340;2022-11-20T09:11:01;98619.53;;;16.42;95.52
27729;BME280;15126;42.186;24.340;2022-11-20T09:13:29;98618.63;;;16.50;95.23
27729;BME280;15126;42.186;24.340;2022-11-20T09:15:57;98604.41;;;16.54;96.14
27729;BME280;15126;42.186;24.340;2022-11-20T09:18:24;98611.88;;;16.57;95.80
27729;BME280;15126;42.186;24.340;2022-11-20T09:20:55;98605.81;;;16.64;95.75
27729;BME280;15126;42.186;24.340;2022-11-20T09:23:22;98590.69;;;16.61;95.16
27729;BME280;15126;42.186;24.340;2022-11-20T09:25:49;98593.94;;;16.75;94.52
27729;BME280;15126;42.186;24.340;2022-11-20T09:28:16;98591.22;;;16.80;95.54
27729;BME280;15126;42.186;24.340;2022-11-20T09:30:45;98589.25;;;16.86;95.58
27729;BME280;15126;42.186;24.340;2022-11-20T09:33:11;98590.66;;;16.96;93.34
27729;BME280;15126;42.186;24.340;2022-11-20T09:35:38;98592.09;;;17.06;93.55
27729;BME280;15126;42.186;24.340;2022-11-20T09:38:06;98578.44;;;17.19;90.79
27729;BME280;15126;42.186;24.340;2022-11-20T09:40:34;98579.34;;;17.31;91.59
27729;BME280;15126;42.186;24.340;2022-11-20T09:43:06;98573.81;;;17.42;91.00
27729;BME280;15126;42.186;24.340;2022-11-20T09:45:52;98581.84;;;17.49;89.19
27729;BME280;15126;42.186;24.340;2022-11-20T09:48:32;98583.78;;;17.58;89.19
27729;BME280;15126;42.186;24.340;2022-11-20T09:51:05;98584.19;;;17.71;88.83
27729;BME280;15126;42.186;24.340;2022-11-20T09:53:44;98575.25;;;17.78;87.74
27729;BME280;15126;42.186;24.340;2022-11-20T09:56:13;98573.34;;;17.90;87.70
27729;BME280;15126;42.186;24.340;2022-11-20T09:58:42;98569.72;;;17.89;87.68
27729;BME280;15126;42.186;24.340;2022-11-20T10:01:14;98578.53;;;17.97;88.18
27729;BME280;15126;42.186;24.340;2022-11-20T10:03:50;98570.09;;;18.02;88.11
27729;BME280;15126;42.186;24.340;2022-11-20T10:06:23;98567.00;;;18.00;86.00
27729;BME280;15126;42.186;24.340;2022-11-20T10:08:55;98573.22;;;18.04;86.25
27729;BME280;15126;42.186;24.340;2022-11-20T10:11:30;98571.75;;;18.14;86.81
27729;BME280;15126;42.186;24.340;2022-11-20T10:14:10;98536.63;;;18.15;74.93
27729;BME280;15126;42.186;24.340;2022-11-20T10:16:48;98542.13;;;18.30;76.56
27729;BME280;15126;42.186;24.340;2022-11-20T10:19:29;98532.72;;;18.44;77.35
27729;BME280;15126;42.186;24.340;2022-11-20T10:22:04;98533.91;;;18.63;72.57
27729;BME280;15126;42.186;24.340;2022-11-20T10:24:43;98534.50;;;18.78;73.99
27729;BME280;15126;42.186;24.340;2022-11-20T10:30:08;98534.38;;;19.04;75.94
27729;BME280;15126;42.186;24.340;2022-11-20T10:32:39;98539.53;;;19.11;74.93
27729;BME280;15126;42.186;24.340;2022-11-20T10:35:20;98541.59;;;19.16;75.61
27729;BME280;15126;42.186;24.340;2022-11-20T10:37:51;98522.56;;;19.11;77.21
27729;BME280;15126;42.186;24.340;2022-11-20T10:40:28;98538.81;;;19.22;76.81
27729;BME280;15126;42.186;24.340;2022-11-20T10:43:00;98533.66;;;19.20;77.05
27729;BME280;15126;42.186;24.340;2022-11-20T10:45:38;98506.38;;;19.12;76.87
27729;BME280;15126;42.186;24.340;2022-11-20T10:48:18;98534.97;;;19.25;76.70
27729;BME280;15126;42.186;24.340;2022-11-20T10:51:03;98512.31;;;19.14;75.77
27729;BME280;15126;42.186;24.340;2022-11-20T10:53:54;98523.66;;;19.30;75.20
27729;BME280;15126;42.186;24.340;2022-11-20T10:56:27;98519.81;;;19.28;76.18
27729;BME280;15126;42.186;24.340;2022-11-20T10:59:33;98526.81;;;19.38;76.30
27729;BME280;15126;42.186;24.340;2022-11-20T11:02:14;98519.38;;;19.40;77.28
27729;BME280;15126;42.186;24.340;2022-11-20T11:04:44;98517.84;;;19.45;77.75
27729;BME280;15126;42.186;24.340;2022-11-20T11:07:15;98513.19;;;19.42;77.53
27729;BME280;15126;42.186;24.340;2022-11-20T11:09:44;98512.97;;;19.51;78.04
27729;BME280;15126;42.186;24.340;2022-11-20T11:12:13;98504.50;;;19.56;77.23
27729;BME280;15126;42.186;24.340;2022-11-20T11:14:48;98504.41;;;19.29;76.58
27729;BME280;15126;42.186;24.340;2022-11-20T11:17:29;98511.59;;;19.35;73.42
27729;BME280;15126;42.186;24.340;2022-11-20T11:20:14;98503.13;;;19.35;72.24
27729;BME280;15126;42.186;24.340;2022-11-20T11:22:45;98510.56;;;19.33;66.39
27729;BME280;15126;42.186;24.340;2022-11-20T11:25:28;98496.47;;;19.38;61.45
27729;BME280;15126;42.186;24.340;2022-11-20T11:27:57;98500.63;;;19.59;60.32
27729;BME280;15126;42.186;24.340;2022-11-20T11:30:26;98494.72;;;19.63;61.20
27729;BME280;15126;42.186;24.340;2022-11-20T11:33:05;98484.44;;;19.60;59.96
27729;BME280;15126;42.186;24.340;2022-11-20T11:35:43;98488.06;;;19.77;57.02
27729;BME280;15126;42.186;24.340;2022-11-20T11:38:14;98499.88;;;19.87;58.38
27729;BME280;15126;42.186;24.340;2022-11-20T11:40:43;98498.84;;;19.95;58.05
27729;BME280;15126;42.186;24.340;2022-11-20T11:43:18;98498.09;;;20.00;57.54
27729;BME280;15126;42.186;24.340;2022-11-20T11:46:15;98499.09;;;20.19;54.53
27729;BME280;15126;42.186;24.340;2022-11-20T11:48:55;98465.41;;;20.05;55.81
27729;BME280;15126;42.186;24.340;2022-11-20T11:51:26;98483.16;;;20.28;55.46
27729;BME280;15126;42.186;24.340;2022-11-20T11:53:56;98479.56;;;20.38;56.07
27729;BME280;15126;42.186;24.340;2022-11-20T11:56:25;98494.22;;;20.48;54.90
27729;BME280;15126;42.186;24.340;2022-11-20T11:58:56;98477.16;;;20.70;53.53
27729;BME280;15126;42.186;24.340;2022-11-20T12:01:31;98482.00;;;20.81;53.16
27729;BME280;15126;42.186;24.340;2022-11-20T12:04:03;98478.63;;;20.88;51.95
27729;BME280;15126;42.186;24.340;2022-11-20T12:06:32;98480.41;;;20.96;53.33
27729;BME280;15126;42.186;24.340;2022-11-20T12:09:04;98475.25;;;21.00;53.51
27729;BME280;15126;42.186;24.340;2022-11-20T12:11:33;98478.06;;;21.11;51.74
27729;BME280;15126;42.186;24.340;2022-11-20T12:14:11;98482.16;;;21.10;53.08
27729;BME280;15126;42.186;24.340;2022-11-20T12:16:41;98478.53;;;21.15;53.09
27729;BME280;15126;42.186;24.340;2022-11-20T12:19:10;98487.06;;;21.10;52.64
27729;BME280;15126;42.186;24.340;2022-11-20T12:21:47;98489.38;;;21.17;53.12
27729;BME280;15126;42.186;24.340;2022-11-20T12:24:35;98481.38;;;21.15;52.71
27729;BME280;15126;42.186;24.340;2022-11-20T12:27:28;98480.38;;;21.02;53.89
27729;BME280;15126;42.186;24.340;2022-11-20T12:30:07;98464.69;;;20.95;53.81
27729;BME280;15126;42.186;24.340;2022-11-20T12:33:05;98477.34;;;20.89;53.48
27729;BME280;15126;42.186;24.340;2022-11-20T12:35:52;98465.97;;;20.94;53.63
27729;BME280;15126;42.186;24.340;2022-11-20T12:38:45;98486.28;;;21.04;53.77
27729;BME280;15126;42.186;24.340;2022-11-20T12:41:22;98470.38;;;20.95;53.69
27729;BME280;15126;42.186;24.340;2022-11-20T12:44:28;98452.59;;;20.89;52.52
27729;BME280;15126;42.186;24.340;2022-11-20T12:47:23;98455.44;;;20.89;52.65
27729;BME280;15126;42.186;24.340;2022-11-20T12:50:02;98461.59;;;20.93;55.13
27729;BME280;15126;42.186;24.340;2022-11-20T12:52:39;98472.44;;;20.89;52.77
27729;BME280;15126;42.186;24.340;2022-11-20T12:55:16;98470.84;;;20.99;53.92
27729;BME280;15126;42.186;24.340;2022-11-20T12:57:53;98450.06;;;20.80;54.41
27729;BME280;15126;42.186;24.340;2022-11-20T13:00:21;98489.69;;;20.91;52.74
27729;BME280;15126;42.186;24.340;2022-11-20T13:03:29;98492.53;;;20.91;53.71
27729;BME280;15126;42.186;24.340;2022-11-20T13:06:08;98482.78;;;20.87;54.55